createdAt,value
2023-03-06T00:00:43.196Z,7.35
2023-03-06T00:03:09.784Z,8.63
2023-03-06T00:05:36.352Z,7.90
2023-03-06T00:08:03.845Z,8.35
2023-03-06T00:10:31.941Z,5.93
2023-03-06T00:13:01.812Z,8.07
2023-03-06T00:15:28.691Z,7.63
2023-03-06T00:17:56.112Z,7.28
2023-03-06T00:20:23.893Z,7.20
2023-03-06T00:22:51.452Z,6.60
2023-03-06T00:25:22.061Z,7.53
2023-03-06T00:27:49.239Z,6.82
2023-03-06T00:30:19.383Z,5.70
2023-03-06T00:32:46.020Z,4.93
2023-03-06T00:35:13.550Z,5.32
2023-03-06T00:37:40.564Z,4.90
2023-03-06T00:40:13.368Z,4.90
2023-03-06T00:42:40.270Z,5.03
2023-03-06T00:45:07.914Z,5.32
2023-03-06T00:47:34.429Z,5.70
2023-03-06T00:50:01.041Z,5.72
2023-03-06T00:52:27.612Z,5.53
2023-03-06T00:54:54.146Z,5.13
2023-03-06T00:57:20.722Z,5.90
2023-03-06T00:59:47.335Z,5.60
2023-03-06T01:02:14.223Z,5.60
2023-03-06T01:04:41.114Z,5.90
2023-03-06T01:07:07.951Z,5.57
2023-03-06T01:09:34.478Z,5.77
2023-03-06T01:12:01.148Z,5.60
2023-03-06T01:14:27.880Z,7.82
2023-03-06T01:16:54.465Z,6.20
2023-03-06T01:19:21.177Z,6.65
2023-03-06T01:21:47.782Z,5.37
2023-03-06T01:24:14.386Z,7.13
2023-03-06T01:26:40.960Z,6.77
2023-03-06T01:29:07.513Z,6.63
2023-03-06T01:31:34.148Z,6.53
2023-03-06T01:34:00.837Z,5.72
2023-03-06T01:36:27.526Z,6.27
2023-03-06T01:38:54.134Z,6.07
2023-03-06T01:41:21.539Z,5.97
2023-03-06T01:43:49.399Z,7.10
2023-03-06T01:46:38.931Z,6.43
2023-03-06T01:49:30.115Z,6.07
2023-03-06T01:52:09.009Z,5.57
2023-03-06T01:54:53.828Z,6.20
2023-03-06T01:57:28.810Z,6.00
2023-03-06T02:00:17.221Z,6.32
2023-03-06T02:02:47.448Z,5.43
2023-03-06T02:05:14.345Z,5.82
2023-03-06T02:07:42.803Z,6.47
2023-03-06T02:10:10.656Z,6.07
2023-03-06T02:12:40.516Z,5.33
2023-03-06T02:15:07.473Z,5.60
2023-03-06T02:17:35.842Z,6.60
2023-03-06T02:20:43.804Z,6.60
2023-03-06T02:23:31.803Z,6.50
2023-03-06T02:25:59.428Z,5.65
2023-03-06T02:28:26.006Z,5.87
2023-03-06T02:30:54.965Z,6.37
2023-03-06T02:33:25.003Z,6.10
2023-03-06T02:36:02.766Z,7.07
2023-03-06T02:38:47.282Z,5.85
2023-03-06T02:41:13.860Z,7.03
2023-03-06T02:43:42.789Z,6.33
2023-03-06T02:46:09.698Z,6.47
2023-03-06T02:48:36.482Z,6.03
2023-03-06T02:51:03.111Z,5.50
2023-03-06T02:53:29.739Z,5.32
2023-03-06T02:55:56.343Z,6.47
2023-03-06T02:58:23.319Z,6.23
2023-03-06T03:00:50.639Z,5.80
2023-03-06T03:03:17.645Z,5.40
2023-03-06T03:05:44.254Z,6.27
2023-03-06T03:08:10.830Z,5.05
2023-03-06T03:10:37.415Z,6.80
2023-03-06T03:13:03.959Z,6.72
2023-03-06T03:15:30.532Z,5.72
2023-03-06T03:17:57.180Z,6.23
2023-03-06T03:20:23.883Z,5.73
2023-03-06T03:22:52.660Z,6.83
2023-03-06T03:25:20.137Z,6.22
2023-03-06T03:27:46.783Z,5.80
2023-03-06T03:30:13.947Z,6.13
2023-03-06T03:32:40.893Z,5.63
2023-03-06T03:35:09.280Z,5.73
2023-03-06T03:37:37.396Z,5.40
2023-03-06T03:40:06.511Z,6.80
2023-03-06T03:42:33.118Z,5.47
2023-03-06T03:44:59.660Z,5.75
2023-03-06T03:47:26.197Z,6.23
2023-03-06T03:49:52.731Z,6.37
2023-03-06T03:52:19.409Z,5.50
2023-03-06T03:54:46.014Z,5.82
2023-03-06T03:57:12.580Z,5.43
2023-03-06T03:59:39.157Z,6.00
2023-03-06T04:02:05.813Z,5.83
2023-03-06T04:04:32.529Z,5.70
2023-03-06T04:06:59.138Z,5.33
2023-03-06T04:09:25.731Z,5.57
2023-03-06T04:11:52.312Z,5.43
2023-03-06T04:14:18.906Z,5.77
2023-03-06T04:16:45.595Z,5.37
2023-03-06T04:19:12.125Z,5.03
2023-03-06T04:21:38.716Z,5.87
2023-03-06T04:24:05.844Z,6.03
2023-03-06T04:26:32.466Z,6.10
2023-03-06T04:28:59.034Z,6.23
2023-03-06T04:31:25.775Z,6.73
2023-03-06T04:33:52.353Z,4.47
2023-03-06T04:36:31.112Z,5.87
2023-03-06T04:38:58.134Z,5.70
2023-03-06T04:41:24.752Z,5.17
2023-03-06T04:43:51.606Z,6.00
2023-03-06T04:46:18.271Z,5.40
2023-03-06T04:48:45.050Z,5.90
2023-03-06T04:51:13.966Z,5.88
2023-03-06T04:53:40.495Z,5.40
2023-03-06T04:56:07.379Z,5.73
2023-03-06T04:58:33.960Z,6.03
2023-03-06T05:01:00.533Z,5.37
2023-03-06T05:03:27.113Z,6.27
2023-03-06T05:05:53.707Z,5.00
2023-03-06T05:08:20.321Z,5.90
2023-03-06T05:10:57.052Z,5.73
2023-03-06T05:13:24.604Z,6.40
2023-03-06T05:15:51.139Z,6.20
2023-03-06T05:18:18.701Z,5.00
2023-03-06T05:20:45.232Z,4.90
2023-03-06T05:23:12.542Z,5.40
2023-03-06T05:25:40.520Z,4.87
2023-03-06T05:28:07.729Z,5.50
2023-03-06T05:30:34.599Z,5.30
2023-03-06T05:33:01.220Z,5.87
2023-03-06T05:35:28.179Z,5.80
2023-03-06T05:37:55.032Z,5.90
2023-03-06T05:40:21.784Z,6.13
2023-03-06T05:42:48.311Z,5.57
2023-03-06T05:45:15.118Z,5.47
2023-03-06T05:47:41.782Z,5.50
2023-03-06T05:50:10.463Z,6.23
2023-03-06T05:52:39.481Z,5.60
2023-03-06T05:55:07.476Z,6.27
2023-03-06T05:57:34.020Z,5.77
2023-03-06T06:00:00.752Z,5.17
2023-03-06T06:02:27.555Z,5.90
2023-03-06T06:04:54.109Z,5.70
2023-03-06T06:07:20.643Z,5.37
2023-03-06T06:09:47.267Z,6.57
2023-03-06T06:12:15.501Z,5.47
2023-03-06T06:14:42.113Z,5.50
2023-03-06T06:17:08.810Z,5.30
2023-03-06T06:19:35.499Z,6.17
2023-03-06T06:22:03.736Z,6.17
2023-03-06T06:24:30.501Z,6.57
2023-03-06T06:26:58.404Z,5.73
2023-03-06T06:29:26.756Z,6.20
2023-03-06T06:31:54.294Z,7.03
2023-03-06T06:34:21.545Z,6.93
2023-03-06T06:36:48.301Z,7.03
2023-03-06T06:39:17.020Z,6.50
2023-03-06T06:41:59.441Z,7.40
2023-03-06T06:44:30.749Z,5.77
2023-03-06T06:49:43.814Z,6.17
2023-03-06T06:52:10.695Z,6.87
2023-03-06T06:54:37.219Z,7.63
2023-03-06T06:57:03.870Z,6.20
2023-03-06T06:59:30.428Z,6.10
2023-03-06T07:01:57.173Z,8.40
2023-03-06T07:04:23.839Z,6.67
2023-03-06T07:06:50.345Z,7.03
2023-03-06T07:09:16.930Z,7.50
2023-03-06T07:11:43.785Z,6.40
2023-03-06T07:14:10.399Z,6.70
2023-03-06T07:16:36.969Z,7.37
2023-03-06T07:19:03.637Z,7.07
2023-03-06T07:21:30.179Z,8.07
2023-03-06T07:23:57.582Z,7.73
2023-03-06T07:26:25.876Z,8.60
2023-03-06T07:28:53.735Z,8.37
2023-03-06T07:31:22.434Z,7.63
2023-03-06T07:33:49.948Z,8.50
2023-03-06T07:36:17.298Z,7.50
2023-03-06T07:38:43.981Z,7.67
2023-03-06T07:41:13.637Z,9.17
2023-03-06T07:43:45.658Z,8.50
2023-03-06T07:46:14.455Z,8.20
2023-03-06T07:48:42.013Z,8.20
2023-03-06T07:51:14.150Z,7.63
2023-03-06T07:53:40.675Z,7.90
2023-03-06T07:56:09.104Z,7.83
2023-03-06T07:58:36.887Z,8.03
2023-03-06T08:01:09.377Z,8.07
2023-03-06T08:03:36.262Z,8.47
2023-03-06T08:06:14.748Z,9.63
2023-03-06T08:08:44.456Z,8.03
2023-03-06T08:11:12.921Z,8.17
2023-03-06T08:13:40.053Z,9.00
2023-03-06T08:16:07.852Z,9.07
2023-03-06T08:18:34.827Z,9.20
2023-03-06T08:21:03.278Z,8.90
2023-03-06T08:23:30.633Z,7.77
2023-03-06T08:26:02.429Z,8.83
2023-03-06T08:28:29.099Z,7.90
2023-03-06T08:30:56.726Z,8.90
2023-03-06T08:33:24.090Z,10.73
2023-03-06T08:35:52.371Z,9.57
2023-03-06T08:38:19.041Z,8.93
2023-03-06T08:40:45.544Z,7.97
2023-03-06T08:43:14.049Z,8.63
2023-03-06T08:45:40.983Z,9.53
2023-03-06T08:48:07.614Z,8.30
2023-03-06T08:50:34.235Z,7.90
2023-03-06T08:53:00.988Z,9.43
2023-03-06T08:55:28.228Z,8.50
2023-03-06T08:57:55.003Z,8.30
2023-03-06T09:00:21.722Z,7.97
2023-03-06T09:02:48.307Z,8.07
2023-03-06T09:05:14.968Z,7.97
2023-03-06T09:07:41.571Z,9.83
2023-03-06T09:10:12.704Z,10.80
2023-03-06T09:15:17.755Z,8.20
2023-03-06T09:17:44.460Z,8.80
2023-03-06T09:20:12.116Z,9.40
2023-03-06T09:22:38.837Z,9.27
2023-03-06T09:25:06.373Z,9.33
2023-03-06T09:27:33.132Z,8.90
2023-03-06T09:29:59.702Z,8.93
2023-03-06T09:32:26.455Z,8.63
2023-03-06T09:34:53.062Z,8.50
2023-03-06T09:37:19.616Z,9.27
2023-03-06T09:39:46.182Z,8.77
2023-03-06T09:42:18.294Z,8.57
2023-03-06T09:44:51.791Z,8.60
2023-03-06T09:47:28.582Z,9.93
2023-03-06T09:50:10.733Z,9.18
2023-03-06T09:53:07.501Z,9.57
2023-03-06T09:55:38.818Z,10.10
2023-03-06T09:58:15.853Z,9.50
2023-03-06T10:01:15.095Z,9.07
2023-03-06T10:03:57.153Z,10.30
2023-03-06T10:06:34.679Z,9.43
2023-03-06T10:09:11.021Z,9.35
2023-03-06T10:11:44.702Z,8.90
2023-03-06T10:14:27.398Z,7.03
2023-03-06T10:16:55.069Z,8.38
2023-03-06T10:19:22.279Z,9.77
2023-03-06T10:21:48.798Z,10.30
2023-03-06T10:24:45.299Z,8.07
2023-03-06T10:27:43.517Z,6.80
2023-03-06T10:30:22.413Z,7.93
2023-03-06T10:33:07.689Z,6.88
2023-03-06T10:35:44.643Z,7.85
2023-03-06T10:38:22.725Z,8.13
2023-03-06T10:41:08.114Z,8.52
2023-03-06T10:43:36.668Z,8.80
2023-03-06T10:46:05.389Z,7.88
2023-03-06T10:48:36.168Z,9.02
2023-03-06T10:51:24.070Z,8.90
2023-03-06T10:53:55.620Z,7.80
2023-03-06T10:56:36.974Z,9.27
2023-03-06T10:59:13.629Z,9.10
2023-03-06T11:01:42.013Z,8.35
2023-03-06T11:04:23.035Z,9.45
2023-03-06T11:07:07.414Z,8.70
2023-03-06T11:09:35.394Z,7.88
2023-03-06T11:12:26.351Z,9.07
2023-03-06T11:15:18.444Z,8.18
2023-03-06T11:17:55.418Z,8.95
2023-03-06T11:20:52.110Z,7.85
2023-03-06T11:23:22.113Z,8.60
2023-03-06T11:26:02.607Z,8.93
2023-03-06T11:28:33.520Z,8.70
2023-03-06T11:31:18.583Z,10.15
2023-03-06T11:34:03.970Z,8.50
2023-03-06T11:36:36.069Z,8.02
2023-03-06T11:39:33.177Z,7.82
2023-03-06T11:42:26.913Z,7.90
2023-03-06T11:45:10.239Z,8.50
2023-03-06T11:47:48.574Z,8.38
2023-03-06T11:50:46.630Z,7.75
2023-03-06T11:53:21.215Z,8.88
2023-03-06T11:56:20.235Z,8.43
2023-03-06T11:59:02.271Z,8.88
2023-03-06T12:01:50.325Z,8.80
2023-03-06T12:04:44.975Z,11.98
2023-03-06T12:07:26.952Z,8.60
2023-03-06T12:13:05.454Z,8.70
2023-03-06T12:15:50.802Z,7.82
2023-03-06T12:18:54.912Z,8.93
2023-03-06T12:22:15.792Z,6.47
2023-03-06T12:25:09.484Z,8.75
2023-03-06T12:27:46.158Z,7.05
2023-03-06T12:30:34.129Z,8.02
2023-03-06T12:33:43.758Z,9.38
2023-03-06T12:36:47.903Z,8.63
2023-03-06T12:39:33.301Z,9.77
2023-03-06T12:42:23.739Z,10.10
2023-03-06T12:44:53.092Z,8.82
2023-03-06T12:47:23.126Z,8.90
2023-03-06T12:50:01.143Z,10.05
2023-03-06T12:52:31.298Z,9.30
2023-03-06T12:55:01.066Z,9.47
2023-03-06T12:57:27.821Z,9.77
2023-03-06T12:59:54.791Z,10.88
2023-03-06T13:03:02.837Z,11.82
2023-03-06T13:05:41.372Z,8.35
2023-03-06T13:08:32.084Z,8.63
2023-03-06T13:11:31.138Z,9.05
2023-03-06T13:13:57.935Z,9.77
2023-03-06T13:16:33.532Z,7.63
2023-03-06T13:19:32.346Z,7.72
2023-03-06T13:22:01.839Z,5.60
2023-03-06T13:24:33.950Z,4.78
2023-03-06T13:27:12.097Z,4.43
2023-03-06T13:29:38.608Z,5.18
2023-03-06T13:32:13.028Z,5.50
2023-03-06T13:34:48.597Z,5.10
2023-03-06T13:37:23.140Z,5.38
2023-03-06T13:39:56.041Z,6.18
2023-03-06T13:42:29.834Z,5.87
2023-03-06T13:44:58.298Z,4.93
2023-03-06T13:47:45.053Z,5.85
2023-03-06T13:50:29.078Z,5.17
2023-03-06T13:53:07.743Z,5.95
2023-03-06T13:56:04.348Z,6.90
2023-03-06T13:58:49.676Z,7.05
2023-03-06T14:01:57.220Z,8.02
2023-03-06T14:04:53.371Z,8.48
2023-03-06T14:07:25.843Z,7.07
2023-03-06T14:10:14.956Z,9.00
2023-03-06T14:13:06.945Z,8.82
2023-03-06T14:15:42.735Z,8.90
2023-03-06T14:18:25.183Z,9.35
2023-03-06T14:20:56.705Z,9.40
2023-03-06T14:23:38.257Z,8.48
2023-03-06T14:26:20.019Z,8.70
2023-03-06T14:29:01.095Z,10.95
2023-03-06T14:31:36.067Z,10.40
2023-03-06T14:34:08.159Z,9.05
2023-03-06T14:36:43.997Z,10.77
2023-03-06T14:39:20.418Z,9.85
2023-03-06T14:41:47.071Z,9.00
2023-03-06T14:44:22.656Z,9.40
2023-03-06T14:46:57.549Z,10.00
2023-03-06T14:49:25.997Z,9.98
2023-03-06T14:52:00.606Z,9.13
2023-03-06T14:54:34.407Z,10.57
2023-03-06T14:57:06.053Z,11.75
2023-03-06T14:59:41.762Z,10.60
2023-03-06T15:02:13.609Z,9.95
2023-03-06T15:05:00.478Z,11.02
2023-03-06T15:07:32.365Z,10.63
2023-03-06T15:10:00.341Z,13.23
2023-03-06T15:12:27.256Z,12.23
2023-03-06T15:14:58.273Z,11.60
2023-03-06T15:17:27.778Z,10.65
2023-03-06T15:19:57.384Z,11.45
2023-03-06T15:22:37.910Z,10.45
2023-03-06T15:25:32.521Z,11.30
2023-03-06T15:28:01.915Z,11.55
2023-03-06T15:30:30.088Z,11.68
2023-03-06T15:33:26.142Z,12.27
2023-03-06T15:35:58.172Z,12.32
2023-03-06T15:38:32.925Z,12.20
2023-03-06T15:41:02.057Z,11.27
2023-03-06T15:43:33.703Z,10.43
2023-03-06T15:46:01.283Z,11.88
2023-03-06T15:48:28.546Z,10.93
2023-03-06T15:50:55.168Z,11.30
2023-03-06T15:53:21.865Z,12.27
2023-03-06T15:55:50.157Z,12.98
2023-03-06T15:58:20.643Z,11.23
2023-03-06T16:00:47.291Z,13.82
2023-03-06T16:03:13.911Z,11.30
2023-03-06T16:05:40.682Z,11.50
2023-03-06T16:08:07.766Z,9.90
2023-03-06T16:10:37.790Z,11.23
2023-03-06T16:13:12.422Z,11.65
2023-03-06T16:15:47.426Z,12.82
2023-03-06T16:18:13.983Z,17.13
2023-03-06T16:20:41.593Z,11.85
2023-03-06T16:23:10.620Z,15.13
2023-03-06T16:25:40.257Z,12.17
2023-03-06T16:28:12.161Z,20.10
2023-03-06T16:30:38.984Z,13.57
2023-03-06T16:33:05.800Z,11.20
2023-03-06T16:35:32.423Z,12.10
2023-03-06T16:38:00.098Z,10.03
2023-03-06T16:40:38.051Z,9.23
2023-03-06T16:43:05.429Z,10.67
2023-03-06T16:45:36.720Z,12.77
2023-03-06T16:48:03.678Z,11.10
2023-03-06T16:50:38.794Z,10.87
2023-03-06T16:53:06.349Z,11.10
2023-03-06T16:55:33.348Z,10.60
2023-03-06T16:58:00.100Z,11.32
2023-03-06T17:00:31.073Z,11.38
2023-03-06T17:05:24.588Z,12.57
2023-03-06T17:07:51.421Z,11.97
2023-03-06T17:10:19.288Z,11.80
2023-03-06T17:12:45.893Z,14.93
2023-03-06T17:15:12.504Z,11.47
2023-03-06T17:17:39.136Z,11.90
2023-03-06T17:20:08.156Z,11.48
2023-03-06T17:22:36.192Z,13.37
2023-03-06T17:25:05.152Z,11.50
2023-03-06T17:27:31.730Z,11.23
2023-03-06T17:29:58.782Z,10.93
2023-03-06T17:32:26.215Z,11.73
2023-03-06T17:34:52.821Z,11.07
2023-03-06T17:37:19.887Z,10.90
2023-03-06T17:39:47.072Z,11.80
2023-03-06T17:42:13.649Z,13.70
2023-03-06T17:44:40.441Z,11.37
2023-03-06T17:47:07.129Z,11.63
2023-03-06T17:49:33.705Z,10.40
2023-03-06T17:52:02.772Z,12.63
2023-03-06T17:54:30.192Z,12.93
2023-03-06T17:57:01.056Z,10.50
2023-03-06T17:59:28.183Z,11.25
2023-03-06T18:01:58.941Z,15.17
2023-03-06T18:04:26.151Z,15.57
2023-03-06T18:06:52.811Z,11.50
2023-03-06T18:09:20.914Z,11.83
2023-03-06T18:11:47.526Z,12.27
2023-03-06T18:14:14.232Z,12.17
2023-03-06T18:16:41.062Z,12.03
2023-03-06T18:19:10.910Z,10.93
2023-03-06T18:21:38.922Z,10.90
2023-03-06T18:24:05.940Z,11.93
2023-03-06T18:26:32.484Z,12.03
2023-03-06T18:29:01.919Z,11.90
2023-03-06T18:31:34.278Z,10.83
2023-03-06T18:34:10.709Z,11.37
2023-03-06T18:36:37.421Z,10.30
2023-03-06T18:39:08.501Z,11.67
2023-03-06T18:44:02.493Z,9.40
2023-03-06T18:46:37.680Z,8.73
2023-03-06T18:49:05.428Z,11.33
2023-03-06T18:51:32.334Z,10.57
2023-03-06T18:54:00.218Z,13.10
2023-03-06T18:56:27.111Z,10.57
2023-03-06T18:58:53.890Z,12.00
2023-03-06T19:01:22.481Z,11.53
2023-03-06T19:03:49.492Z,10.93
2023-03-06T19:06:17.421Z,11.50
2023-03-06T19:08:44.481Z,10.30
2023-03-06T19:11:14.315Z,10.27
2023-03-06T19:13:41.728Z,11.23
2023-03-06T19:16:09.379Z,13.03
2023-03-06T19:18:36.104Z,11.17
2023-03-06T19:21:17.876Z,11.20
2023-03-06T19:23:44.591Z,12.87
2023-03-06T19:26:11.751Z,12.77
2023-03-06T19:28:40.181Z,14.93
2023-03-06T19:31:21.061Z,14.30
2023-03-06T19:33:49.163Z,15.65
2023-03-06T19:36:17.330Z,14.40
2023-03-06T19:38:43.837Z,15.53
2023-03-06T19:41:13.501Z,16.43
2023-03-06T19:43:41.810Z,14.10
2023-03-06T19:46:14.672Z,13.60
2023-03-06T19:48:41.804Z,14.13
2023-03-06T19:51:08.937Z,14.17
2023-03-06T19:53:35.880Z,14.53
2023-03-06T19:56:21.134Z,13.93
2023-03-06T19:58:47.876Z,14.70
2023-03-06T20:01:20.044Z,12.50
2023-03-06T20:03:46.730Z,13.63
2023-03-06T20:06:15.997Z,13.27
2023-03-06T20:08:43.339Z,13.57
2023-03-06T20:11:21.612Z,14.90
2023-03-06T20:13:48.924Z,18.07
2023-03-06T20:16:16.975Z,14.73
2023-03-06T20:18:43.924Z,18.80
2023-03-06T20:21:10.540Z,14.30
2023-03-06T20:23:37.550Z,17.60
2023-03-06T20:26:06.451Z,15.07
2023-03-06T20:28:33.829Z,12.63
2023-03-06T20:31:06.518Z,16.10
2023-03-06T20:33:33.446Z,15.50
2023-03-06T20:36:00.153Z,16.33
2023-03-06T20:38:26.827Z,15.17
2023-03-06T20:40:57.852Z,16.20
2023-03-06T20:46:03.018Z,14.40
2023-03-06T20:48:29.971Z,15.23
2023-03-06T20:51:01.325Z,16.30
2023-03-06T20:53:28.240Z,12.90
2023-03-06T20:55:54.862Z,14.90
2023-03-06T20:58:23.272Z,16.07
2023-03-06T21:00:49.839Z,15.30
2023-03-06T21:03:16.409Z,15.53
2023-03-06T21:05:45.396Z,13.27
2023-03-06T21:08:11.932Z,13.23
2023-03-06T21:10:38.599Z,17.27
2023-03-06T21:13:05.251Z,15.27
2023-03-06T21:15:32.129Z,15.07
2023-03-06T21:17:58.881Z,14.67
2023-03-06T21:20:25.382Z,15.93
2023-03-06T21:22:52.022Z,15.50
2023-03-06T21:25:18.562Z,15.50
2023-03-06T21:27:45.082Z,16.20
2023-03-06T21:30:12.268Z,16.37
2023-03-06T21:32:38.878Z,15.33
2023-03-06T21:35:05.844Z,15.77
2023-03-06T21:37:32.531Z,15.73
2023-03-06T21:39:59.958Z,14.83
2023-03-06T21:42:26.510Z,18.57
2023-03-06T21:44:53.102Z,15.70
2023-03-06T21:47:19.637Z,14.87
2023-03-06T21:49:49.010Z,16.00
2023-03-06T21:52:15.688Z,14.40
2023-03-06T21:54:42.253Z,15.27
2023-03-06T21:57:08.861Z,15.53
2023-03-06T21:59:36.612Z,16.27
2023-03-06T22:02:03.170Z,16.80
2023-03-06T22:04:29.725Z,13.97
2023-03-06T22:06:56.374Z,15.03
2023-03-06T22:09:22.951Z,14.50
2023-03-06T22:11:49.510Z,15.57
2023-03-06T22:14:16.082Z,13.97
2023-03-06T22:16:42.623Z,15.07
2023-03-06T22:19:09.164Z,12.90
2023-03-06T22:21:35.794Z,14.80
2023-03-06T22:24:02.392Z,16.30
2023-03-06T22:26:31.336Z,15.20
2023-03-06T22:28:57.954Z,12.90
2023-03-06T22:31:28.347Z,13.33
2023-03-06T22:33:57.285Z,13.85
2023-03-06T22:36:24.595Z,12.73
2023-03-06T22:38:55.685Z,14.37
2023-03-06T22:43:49.213Z,14.80
2023-03-06T22:46:17.733Z,12.87
2023-03-06T22:48:44.876Z,17.00
2023-03-06T22:51:17.237Z,14.40
2023-03-06T22:53:43.887Z,15.20
2023-03-06T22:56:12.882Z,13.03
2023-03-06T22:58:40.305Z,14.70
2023-03-06T23:01:34.106Z,12.77
2023-03-06T23:04:03.483Z,15.37
2023-03-06T23:06:30.144Z,15.33
2023-03-06T23:09:06.443Z,12.73
2023-03-06T23:11:34.143Z,13.50
2023-03-06T23:14:01.407Z,13.30
2023-03-06T23:16:28.127Z,14.43
2023-03-06T23:18:54.744Z,15.30
2023-03-06T23:21:22.812Z,13.27
2023-03-06T23:23:51.207Z,13.03
2023-03-06T23:26:20.037Z,14.80
2023-03-06T23:28:46.673Z,13.27
2023-03-06T23:31:16.733Z,15.87
2023-03-06T23:33:43.617Z,12.00
2023-03-06T23:36:12.665Z,13.67
2023-03-06T23:38:39.967Z,13.20
2023-03-06T23:41:10.434Z,13.57
2023-03-06T23:43:37.155Z,14.00
2023-03-06T23:46:04.216Z,13.60
2023-03-06T23:48:31.016Z,14.50
2023-03-06T23:50:57.656Z,12.97
2023-03-06T23:53:24.490Z,13.90
2023-03-06T23:55:51.465Z,13.13
2023-03-06T23:58:19.519Z,12.40
